WetterOnline ( https://www.wetteronline.de )

Wetter aktuell Horn-Bad Meinberg

Aktuelles Wetter: Bad Lippspringe (158m)

6-stündlich | Neueste Meldungen
Ortszeit Temperatur Wetter
So, 19.09. 14:00 13.8° C bedeckt
So, 19.09. 8:00 13.6° C bedeckt
So, 19.09. 2:00 12.3° C wolkig
Sa, 18.09. 20:00 15.7° C bedeckt
Sa, 18.09. 14:00 18.0° C bewölkt
Sa, 18.09. 8:00 8.8° C wolkenlos
Sa, 18.09. 2:00 11.2° C leicht bewölkt
Fr, 17.09. 20:00 15.6° C bedeckt
Ortszeit Temperatur Wetter
So, 19.09. 16:00 13.9° C bedeckt
So, 19.09. 15:50 13.9° C bedeckt
So, 19.09. 15:40 14.0° C bedeckt
So, 19.09. 15:30 13.8° C bedeckt
So, 19.09. 15:20 13.8° C bedeckt
So, 19.09. 15:10 13.8° C bewölkt
So, 19.09. 15:00 14.1° C bedeckt
So, 19.09. 14:30 13.8° C bedeckt
So, 19.09. 14:00 13.8° C bedeckt
So, 19.09. 13:30 13.8° C bedeckt
So, 19.09. 13:00 13.9° C bedeckt
Ortszeit Relative Feuchte Sichtweite
So, 19.09. 14:00 72% >70 km
So, 19.09. 8:00 87% 55 km
So, 19.09. 2:00 92% 65 km
Sa, 18.09. 20:00 81% 65 km
Sa, 18.09. 14:00 62% >70 km
Sa, 18.09. 8:00 99% 3.8 km
Sa, 18.09. 2:00 99% 2.8 km
Fr, 17.09. 20:00 92% 10 km
Ortszeit Relative Feuchte Sichtweite
So, 19.09. 16:00 69% 60 km
So, 19.09. 15:50 69% -
So, 19.09. 15:40 69% -
So, 19.09. 15:30 68% >70 km
So, 19.09. 15:20 68% -
So, 19.09. 15:10 67% -
So, 19.09. 15:00 69% 50 km
So, 19.09. 14:30 69% 65 km
So, 19.09. 14:00 72% >70 km
So, 19.09. 13:30 72% 60 km
So, 19.09. 13:00 70% 65 km
Ortszeit Niederschlagsmenge Niederschlagsart
So, 19.09. 14:00 0.0 l/m2 in 6 Std. -
So, 19.09. 8:00 0.0 l/m2 in 12 Std. -
So, 19.09. 2:00 0.0 l/m2 in 6 Std. -
Sa, 18.09. 20:00 0.0 l/m2 in 12 Std. -
Sa, 18.09. 14:00 0.0 l/m2 in 6 Std. -
Sa, 18.09. 8:00 0.1 l/m2 in 12 Std. -
Sa, 18.09. 2:00 0.1 l/m2 in 6 Std. Regen
Fr, 17.09. 20:00 0.1 l/m2 in 12 Std. -
Ortszeit Niederschlagsmenge Niederschlagsart
So, 19.09. 16:00 0.0 l/m2 in 1 Std. -
So, 19.09. 15:50 keine Meldung -
So, 19.09. 15:40 keine Meldung -
So, 19.09. 15:30 0.0 l/m2 in 1 Std. -
So, 19.09. 15:20 keine Meldung -
So, 19.09. 15:10 keine Meldung -
So, 19.09. 15:00 0.0 l/m2 in 1 Std. -
So, 19.09. 14:30 0.0 l/m2 in 1 Std. -
So, 19.09. 14:00 0.0 l/m2 in 1 Std. -
So, 19.09. 13:30 0.0 l/m2 in 1 Std. -
So, 19.09. 13:00 0.0 l/m2 in 1 Std. -
Ortszeit Stärke Spitze Richtung
km/h Bft. km/h Grad Sektor
So, 19.09. 14:00 11 2 32 110° O
So, 19.09. 8:00 15 3 30 110° O
So, 19.09. 2:00 7 2 25 100° O
Sa, 18.09. 20:00 9 2 20 100° O
Sa, 18.09. 14:00 9 2 17 120° SO
Sa, 18.09. 8:00 0 0 7 - -
Sa, 18.09. 2:00 2 1 7 90° O
Fr, 17.09. 20:00 4 1 18 70° O
Ortszeit Stärke Spitze Richtung
km/h Bft. km/h Grad Sektor
So, 19.09. 16:00 11 2 18 120° SO
So, 19.09. 15:50 11 2 - 120° SO
So, 19.09. 15:40 9 2 - 130° SO
So, 19.09. 15:30 13 3 19 130° SO
So, 19.09. 15:20 13 3 - 130° SO
So, 19.09. 15:10 11 2 - 150° SO
So, 19.09. 15:00 11 2 22 120° SO
So, 19.09. 14:30 11 2 22 130° SO
So, 19.09. 14:00 11 2 22 110° O
So, 19.09. 13:30 11 2 22 100° O
So, 19.09. 13:00 17 3 26 110° O
Ortszeit Untergrenze Bedeckung Gattung
total tief tief mittel hoch
So, 19.09. 14:00 810 m 8/8 8/8 - - -
So, 19.09. 8:00 1200 m 8/8 8/8 - - -
So, 19.09. 2:00 1500 m 8/8 1/8 - - -
Sa, 18.09. 20:00 1260 m 8/8 8/8 - - -
Sa, 18.09. 14:00 960 m 7/8 7/8 - - -
Sa, 18.09. 8:00 - 0/8 0/8 - - -
Sa, 18.09. 2:00 810 m 3/8 3/8 - - -
Fr, 17.09. 20:00 720 m 8/8 8/8 - - -
Ortszeit Bedeckungsgrad in Achtel und Wolkenuntergrenze
So, 19.09. 16:00 8(990m)
So, 19.09. 15:50 8(990m)
So, 19.09. 15:40 8(990m)
So, 19.09. 15:30 1(810m) 8(990m)
So, 19.09. 15:20 1(810m) 8(990m)
So, 19.09. 15:10 7(990m)
So, 19.09. 15:00 8(960m) 8(990m)
So, 19.09. 14:30 8(870m)
So, 19.09. 14:00 8(810m)
So, 19.09. 13:30 8(840m)
So, 19.09. 13:00 8(870m)
Ortszeit Luftdruck NN (hPa) Tendenz (hPa in 3 Std.)
So, 19.09. 14:00 1018 + 0,3
So, 19.09. 8:00 1016 - 0,1
So, 19.09. 2:00 1017 - 0,3
Sa, 18.09. 20:00 1017 - 0,1
Sa, 18.09. 14:00 1018 - 0,1
Sa, 18.09. 8:00 1018 + 0,7
Sa, 18.09. 2:00 1017 + 0,4
Fr, 17.09. 20:00 1015 - 0,1
Ortszeit Luftdruck NN (hPa) Tendenz (hPa in 3 Std.)
So, 19.09. 16:00 1017 - 0,4
So, 19.09. 15:50 1017 keine Meldung
So, 19.09. 15:40 1017 keine Meldung
So, 19.09. 15:30 1017 - 0,3
So, 19.09. 15:20 1017 keine Meldung
So, 19.09. 15:10 1017 keine Meldung
So, 19.09. 15:00 1017 - 0,1
So, 19.09. 14:30 1018 + 0,2
So, 19.09. 14:00 1018 + 0,3
So, 19.09. 13:30 1018 + 0,5
So, 19.09. 13:00 1018 + 0,6
Ortszeit Schneehöhe (cm)
So, 19.09. 14:00 -
So, 19.09. 8:00 -
So, 19.09. 2:00 -
Sa, 18.09. 20:00 -
Sa, 18.09. 14:00 -
Sa, 18.09. 8:00 -
Sa, 18.09. 2:00 -
Fr, 17.09. 20:00 -
Ortszeit Schneehöhe (cm)
So, 19.09. 16:00 -
So, 19.09. 15:50 -
So, 19.09. 15:40 -
So, 19.09. 15:30 -
So, 19.09. 15:20 -
So, 19.09. 15:10 -
So, 19.09. 15:00 -
So, 19.09. 14:30 -
So, 19.09. 14:00 -
So, 19.09. 13:30 -
So, 19.09. 13:00 -
Link zu dieser Seite / Seite empfehlen

Das Wetter in ...